createdAt,value
2019-04-30T00:01:55.697Z,58.00
2019-04-30T00:03:59.667Z,58.00
2019-04-30T00:06:07.171Z,58.00
2019-04-30T00:08:11.354Z,58.10
2019-04-30T00:10:16.322Z,58.10
2019-04-30T00:12:21.735Z,58.20
2019-04-30T00:14:32.082Z,58.10
2019-04-30T00:16:38.379Z,58.20
2019-04-30T00:18:55.187Z,58.20
2019-04-30T00:20:47.071Z,58.20
2019-04-30T00:22:51.994Z,58.20
2019-04-30T00:24:56.714Z,58.30
2019-04-30T00:27:02.657Z,58.20
2019-04-30T00:29:07.461Z,58.20
2019-04-30T00:31:12.377Z,58.20
2019-04-30T00:33:22.225Z,58.20
2019-04-30T00:35:25.385Z,58.20
2019-04-30T00:37:30.382Z,58.20
2019-04-30T00:39:35.624Z,58.20
2019-04-30T00:41:44.092Z,58.20
2019-04-30T00:43:50.682Z,58.10
2019-04-30T00:45:55.128Z,58.30
2019-04-30T00:48:00.250Z,58.30
2019-04-30T00:50:05.556Z,58.20
2019-04-30T00:52:10.554Z,58.30
2019-04-30T00:54:17.695Z,58.10
2019-04-30T00:56:24.805Z,58.20
2019-04-30T00:58:30.168Z,58.20
2019-04-30T01:00:40.974Z,58.20
2019-04-30T01:03:08.121Z,58.20
2019-04-30T01:05:15.697Z,58.20
2019-04-30T01:07:20.701Z,58.20
2019-04-30T01:09:25.801Z,58.20
2019-04-30T01:11:30.738Z,58.20
2019-04-30T01:13:35.484Z,58.20
2019-04-30T01:15:43.917Z,58.20
2019-04-30T01:17:51.007Z,58.80
2019-04-30T01:19:54.471Z,58.10
2019-04-30T01:21:59.511Z,58.20
2019-04-30T01:24:04.230Z,58.30
2019-04-30T01:26:09.086Z,58.10
2019-04-30T01:28:16.537Z,58.10
2019-04-30T01:30:22.820Z,58.10
2019-04-30T01:32:29.238Z,58.10
2019-04-30T01:34:33.967Z,58.70
2019-04-30T01:36:39.228Z,58.00
2019-04-30T01:38:44.750Z,58.00
2019-04-30T01:40:51.128Z,58.00
2019-04-30T01:42:56.069Z,58.00
2019-04-30T01:45:02.113Z,58.10
2019-04-30T01:47:08.623Z,58.00
2019-04-30T01:49:13.616Z,58.00
2019-04-30T01:51:21.795Z,58.00
2019-04-30T01:53:24.939Z,58.00
2019-04-30T01:55:49.418Z,58.00
2019-04-30T01:58:01.656Z,58.00
2019-04-30T02:00:25.539Z,57.90
2019-04-30T02:02:32.057Z,57.90
2019-04-30T02:04:36.751Z,57.80
2019-04-30T02:06:43.195Z,57.90
2019-04-30T02:08:49.367Z,57.90
2019-04-30T02:10:56.041Z,57.80
2019-04-30T02:13:01.056Z,57.70
2019-04-30T02:15:06.009Z,57.80
2019-04-30T02:17:10.992Z,57.80
2019-04-30T02:19:15.775Z,57.70
2019-04-30T02:21:20.545Z,57.70
2019-04-30T02:23:25.408Z,57.80
2019-04-30T02:25:30.206Z,57.70
2019-04-30T02:27:35.920Z,57.80
2019-04-30T02:29:40.708Z,57.70
2019-04-30T02:31:45.825Z,57.70
2019-04-30T02:33:53.305Z,57.80
2019-04-30T02:36:19.681Z,57.70
2019-04-30T02:38:42.674Z,57.70
2019-04-30T02:40:49.911Z,57.70
2019-04-30T02:42:57.845Z,57.60
2019-04-30T02:45:03.701Z,57.60
2019-04-30T02:47:10.153Z,57.60
2019-04-30T02:49:14.685Z,57.70
2019-04-30T02:51:20.105Z,57.60
2019-04-30T02:53:52.613Z,57.50
2019-04-30T02:55:59.524Z,57.50
2019-04-30T02:58:03.961Z,57.60
2019-04-30T03:00:14.226Z,57.50
2019-04-30T03:02:21.198Z,57.50
2019-04-30T03:04:26.056Z,57.40
2019-04-30T03:06:30.794Z,57.50
2019-04-30T03:08:35.621Z,57.40
2019-04-30T03:10:40.398Z,57.40
2019-04-30T03:12:45.250Z,57.40
2019-04-30T03:14:50.325Z,57.40
2019-04-30T03:17:02.160Z,57.40
2019-04-30T03:19:15.172Z,57.40
2019-04-30T03:21:40.487Z,57.40
2019-04-30T03:23:45.336Z,57.40
2019-04-30T03:25:50.284Z,57.40
2019-04-30T03:27:56.242Z,57.30
2019-04-30T03:30:00.958Z,57.30
2019-04-30T03:32:06.746Z,57.30
2019-04-30T03:34:17.550Z,57.30
2019-04-30T03:36:21.727Z,57.30
2019-04-30T03:38:24.432Z,57.30
2019-04-30T03:40:30.224Z,57.20
2019-04-30T03:42:35.139Z,57.10
2019-04-30T03:44:40.285Z,57.20
2019-04-30T03:46:45.210Z,57.10
2019-04-30T03:48:50.463Z,57.10
2019-04-30T03:50:56.950Z,57.10
2019-04-30T03:53:01.964Z,57.10
2019-04-30T03:55:09.076Z,57.10
2019-04-30T03:57:13.443Z,57.20
2019-04-30T03:59:19.956Z,57.20
2019-04-30T04:01:33.038Z,57.10
2019-04-30T04:03:56.794Z,57.10
2019-04-30T04:06:21.566Z,57.10
2019-04-30T04:08:39.531Z,57.10
2019-04-30T04:10:52.996Z,57.10
2019-04-30T04:12:59.586Z,57.10
2019-04-30T04:15:04.113Z,57.20
2019-04-30T04:17:09.902Z,57.10
2019-04-30T04:19:14.926Z,57.10
2019-04-30T04:21:20.677Z,57.10
2019-04-30T04:23:25.713Z,57.10
2019-04-30T04:25:30.447Z,57.10
2019-04-30T04:27:35.280Z,57.10
2019-04-30T04:29:41.263Z,57.10
2019-04-30T04:31:46.201Z,57.10
2019-04-30T04:33:52.680Z,57.10
2019-04-30T04:35:59.809Z,57.10
2019-04-30T04:38:04.272Z,57.10
2019-04-30T04:40:09.474Z,57.20
2019-04-30T04:42:14.393Z,57.10
2019-04-30T04:44:20.310Z,57.10
2019-04-30T04:46:25.410Z,57.10
2019-04-30T04:48:30.335Z,57.10
2019-04-30T04:50:35.291Z,57.00
2019-04-30T04:52:40.233Z,57.30
2019-04-30T04:54:45.103Z,57.00
2019-04-30T04:56:53.179Z,57.00
2019-04-30T04:58:56.354Z,57.10
2019-04-30T05:01:01.146Z,57.00
2019-04-30T05:03:11.621Z,57.10
2019-04-30T05:05:16.642Z,57.10
2019-04-30T05:07:21.614Z,57.10
2019-04-30T05:09:26.434Z,57.10
2019-04-30T05:11:31.627Z,57.00
2019-04-30T05:13:36.784Z,57.10
2019-04-30T05:15:41.695Z,57.10
2019-04-30T05:17:46.539Z,57.10
2019-04-30T05:19:51.283Z,57.10
2019-04-30T05:21:56.133Z,57.10
2019-04-30T05:24:01.060Z,57.10
2019-04-30T05:26:05.805Z,57.00
2019-04-30T05:28:10.657Z,57.10
2019-04-30T05:30:15.530Z,57.30
2019-04-30T05:32:20.435Z,57.30
2019-04-30T05:34:25.214Z,57.40
2019-04-30T05:36:30.164Z,57.70
2019-04-30T05:38:35.065Z,57.60
2019-04-30T05:40:42.433Z,57.70
2019-04-30T05:42:46.388Z,57.80
2019-04-30T05:44:51.179Z,57.90
2019-04-30T05:46:55.986Z,57.50
2019-04-30T05:49:00.895Z,58.10
2019-04-30T05:51:05.635Z,60.10
2019-04-30T05:53:11.521Z,60.70
2019-04-30T05:55:17.063Z,60.40
2019-04-30T05:57:21.858Z,60.40
2019-04-30T05:59:28.804Z,59.10
2019-04-30T06:01:33.345Z,58.60
2019-04-30T06:03:38.625Z,58.50
2019-04-30T06:05:43.533Z,58.60
2019-04-30T06:07:49.556Z,58.50
2019-04-30T06:10:14.490Z,58.60
2019-04-30T06:12:28.974Z,58.60
2019-04-30T06:14:49.081Z,58.60
2019-04-30T06:17:11.742Z,58.60
2019-04-30T06:19:16.573Z,58.30
2019-04-30T06:21:21.706Z,58.60
2019-04-30T06:23:26.860Z,58.60
2019-04-30T06:25:41.304Z,58.50
2019-04-30T06:27:38.735Z,58.50
2019-04-30T06:29:43.719Z,58.30
2019-04-30T06:31:48.720Z,58.30
2019-04-30T06:33:53.673Z,58.20
2019-04-30T06:35:59.075Z,58.20
2019-04-30T06:38:04.045Z,58.10
2019-04-30T06:40:09.403Z,58.00
2019-04-30T06:42:15.450Z,57.90
2019-04-30T06:44:21.206Z,57.80
2019-04-30T06:46:26.165Z,57.70
2019-04-30T06:48:30.940Z,57.70
2019-04-30T06:50:35.933Z,57.70
2019-04-30T06:52:40.685Z,57.60
2019-04-30T06:54:45.445Z,57.60
2019-04-30T06:56:50.433Z,57.50
2019-04-30T06:58:56.398Z,57.40
2019-04-30T07:01:01.298Z,57.40
2019-04-30T07:03:06.287Z,57.30
2019-04-30T07:05:11.986Z,57.30
2019-04-30T07:07:19.281Z,57.30
2019-04-30T07:09:39.847Z,57.20
2019-04-30T07:11:41.069Z,57.40
2019-04-30T07:13:49.545Z,57.10
2019-04-30T07:15:55.151Z,57.20
2019-04-30T07:18:00.045Z,57.20
2019-04-30T07:20:05.282Z,57.30
2019-04-30T07:22:10.245Z,57.10
2019-04-30T07:24:15.194Z,57.30
2019-04-30T07:26:24.459Z,57.10
2019-04-30T07:28:43.135Z,57.10
2019-04-30T07:30:34.191Z,57.10
2019-04-30T07:32:38.933Z,56.90
2019-04-30T07:34:43.845Z,57.00
2019-04-30T07:37:10.427Z,56.90
2019-04-30T07:38:56.926Z,56.90
2019-04-30T07:41:02.659Z,56.80
2019-04-30T07:43:09.030Z,56.70
2019-04-30T07:45:14.023Z,56.70
2019-04-30T07:47:19.504Z,56.70
2019-04-30T07:49:24.709Z,56.50
2019-04-30T07:51:32.069Z,56.50
2019-04-30T07:53:36.228Z,56.40
2019-04-30T07:55:41.065Z,56.40
2019-04-30T07:57:45.877Z,57.00
2019-04-30T07:59:50.635Z,56.40
2019-04-30T08:02:06.450Z,56.30
2019-04-30T08:04:21.113Z,56.30
2019-04-30T08:06:26.523Z,56.20
2019-04-30T08:08:31.390Z,56.20
2019-04-30T08:10:36.185Z,56.10
2019-04-30T08:12:43.507Z,56.00
2019-04-30T08:14:49.427Z,56.00
2019-04-30T08:16:53.986Z,55.90
2019-04-30T08:18:59.224Z,56.00
2019-04-30T08:21:04.175Z,55.90
2019-04-30T08:23:20.300Z,55.80
2019-04-30T08:25:18.927Z,55.70
2019-04-30T08:27:24.374Z,55.80
2019-04-30T08:29:29.528Z,55.60
2019-04-30T08:31:34.536Z,55.60
2019-04-30T08:33:40.227Z,55.40
2019-04-30T08:35:45.374Z,55.50
2019-04-30T08:37:50.166Z,55.40
2019-04-30T08:39:54.974Z,55.30
2019-04-30T08:42:00.769Z,55.80
2019-04-30T08:44:06.833Z,55.30
2019-04-30T08:46:11.812Z,55.10
2019-04-30T08:48:18.989Z,55.10
2019-04-30T08:50:23.951Z,55.10
2019-04-30T08:52:30.499Z,55.10
2019-04-30T08:54:35.362Z,55.00
2019-04-30T08:56:40.118Z,54.90
2019-04-30T08:58:49.504Z,55.00
2019-04-30T09:00:54.276Z,54.80
2019-04-30T09:02:59.890Z,54.80
2019-04-30T09:05:10.802Z,54.70
2019-04-30T09:08:10.888Z,54.50
2019-04-30T09:10:19.110Z,54.50
2019-04-30T09:12:23.858Z,54.50
2019-04-30T09:14:30.952Z,54.40
2019-04-30T09:16:36.001Z,54.40
2019-04-30T09:18:41.292Z,54.40
2019-04-30T09:20:46.714Z,54.30
2019-04-30T09:22:51.652Z,54.10
2019-04-30T09:24:56.567Z,54.10
2019-04-30T09:27:01.762Z,53.90
2019-04-30T09:29:06.733Z,53.90
2019-04-30T09:31:13.269Z,53.90
2019-04-30T09:33:19.418Z,53.80
2019-04-30T09:35:24.892Z,53.80
2019-04-30T09:37:30.605Z,53.80
2019-04-30T09:39:35.922Z,54.40
2019-04-30T09:41:41.163Z,54.30
2019-04-30T09:43:46.028Z,53.80
2019-04-30T09:45:50.815Z,53.80
2019-04-30T09:47:55.595Z,53.60
2019-04-30T09:50:00.396Z,53.80
2019-04-30T09:52:05.679Z,53.70
2019-04-30T09:54:12.797Z,53.70
2019-04-30T09:56:18.898Z,53.70
2019-04-30T09:58:23.888Z,53.40
2019-04-30T10:00:29.469Z,53.50
2019-04-30T10:02:34.462Z,53.50
2019-04-30T10:04:39.965Z,53.40
2019-04-30T10:06:45.330Z,53.00
2019-04-30T10:08:51.315Z,52.60
2019-04-30T10:11:16.561Z,52.70
2019-04-30T10:13:21.329Z,52.70
2019-04-30T10:15:34.971Z,52.70
2019-04-30T10:17:41.650Z,52.70
2019-04-30T10:19:49.202Z,52.70
2019-04-30T10:21:54.248Z,52.60
2019-04-30T10:24:12.310Z,52.60
2019-04-30T10:26:08.318Z,52.60
2019-04-30T10:28:13.201Z,52.60
2019-04-30T10:30:21.486Z,52.60
2019-04-30T10:32:26.339Z,52.60
2019-04-30T10:34:31.200Z,52.60
2019-04-30T10:36:36.113Z,52.50
2019-04-30T10:38:40.903Z,52.60
2019-04-30T10:40:45.692Z,52.30
2019-04-30T10:42:50.632Z,52.30
2019-04-30T10:44:55.421Z,52.30
2019-04-30T10:47:00.183Z,52.30
2019-04-30T10:49:05.071Z,52.30
2019-04-30T10:51:09.937Z,52.20
2019-04-30T10:53:14.837Z,52.20
2019-04-30T10:55:31.737Z,52.20
2019-04-30T10:57:36.485Z,52.20
2019-04-30T10:59:41.236Z,52.00
2019-04-30T11:01:45.966Z,52.70
2019-04-30T11:03:50.756Z,52.10
2019-04-30T11:05:55.492Z,52.20
2019-04-30T11:08:00.284Z,52.10
2019-04-30T11:10:05.591Z,52.10
2019-04-30T11:12:10.431Z,52.00
2019-04-30T11:14:15.376Z,51.90
2019-04-30T11:16:20.253Z,51.90
2019-04-30T11:18:25.188Z,51.90
2019-04-30T11:20:30.338Z,51.90
2019-04-30T11:22:35.568Z,51.90
2019-04-30T11:24:54.021Z,51.90
2019-04-30T11:26:49.684Z,51.90
2019-04-30T11:28:53.843Z,51.80
2019-04-30T11:31:18.095Z,51.70
2019-04-30T11:33:24.244Z,51.70
2019-04-30T11:35:29.817Z,51.60
2019-04-30T11:37:34.521Z,51.60
2019-04-30T11:39:39.558Z,51.40
2019-04-30T11:41:44.400Z,51.30
2019-04-30T11:43:49.669Z,51.30
2019-04-30T11:46:33.185Z,51.30
2019-04-30T11:48:38.740Z,51.20
2019-04-30T11:50:43.680Z,51.30
2019-04-30T11:52:48.451Z,51.30
2019-04-30T11:54:54.596Z,51.30
2019-04-30T11:57:00.243Z,51.30
2019-04-30T11:59:05.984Z,51.30
2019-04-30T12:01:12.174Z,51.30
2019-04-30T12:03:19.200Z,51.30
2019-04-30T12:05:24.121Z,51.20
2019-04-30T12:07:50.732Z,51.10
2019-04-30T12:10:10.809Z,51.00
2019-04-30T12:12:15.617Z,50.90
2019-04-30T12:14:20.544Z,50.80
2019-04-30T12:16:25.220Z,50.80
2019-04-30T12:18:29.999Z,50.80
2019-04-30T12:20:34.972Z,50.80
2019-04-30T12:22:40.015Z,50.80
2019-04-30T12:24:46.042Z,50.90
2019-04-30T12:26:50.874Z,50.80
2019-04-30T12:28:55.825Z,50.70
2019-04-30T12:31:00.679Z,50.70
2019-04-30T12:33:05.772Z,50.60
2019-04-30T12:35:10.750Z,50.30
2019-04-30T12:37:15.769Z,50.50
2019-04-30T12:39:20.545Z,50.50
2019-04-30T12:41:25.402Z,50.50
2019-04-30T12:43:30.381Z,50.50
2019-04-30T12:45:35.547Z,50.50
2019-04-30T12:47:44.695Z,50.60
2019-04-30T12:50:01.779Z,50.50
2019-04-30T12:52:12.757Z,50.40
2019-04-30T12:54:26.567Z,50.40
2019-04-30T12:56:44.941Z,50.10
2019-04-30T12:58:50.022Z,49.00
2019-04-30T13:00:54.991Z,49.00
2019-04-30T13:02:59.845Z,49.40
2019-04-30T13:05:05.364Z,49.70
2019-04-30T13:07:10.977Z,49.80
2019-04-30T13:09:19.841Z,49.70
2019-04-30T13:11:24.207Z,49.60
2019-04-30T13:13:31.951Z,49.60
2019-04-30T13:15:37.449Z,49.40
2019-04-30T13:17:42.210Z,49.40
2019-04-30T13:19:47.052Z,49.50
2019-04-30T13:21:51.924Z,49.40
2019-04-30T13:23:57.050Z,49.60
2019-04-30T13:26:01.947Z,49.40
2019-04-30T13:28:11.459Z,49.40
2019-04-30T13:30:20.656Z,49.40
2019-04-30T13:32:30.269Z,49.80
2019-04-30T13:34:45.437Z,49.30
2019-04-30T13:36:50.236Z,49.40
2019-04-30T13:39:01.118Z,49.10
2019-04-30T13:41:13.485Z,49.00
2019-04-30T13:43:20.139Z,48.90
2019-04-30T13:45:25.606Z,48.90
2019-04-30T13:47:30.662Z,49.00
2019-04-30T13:49:36.424Z,48.90
2019-04-30T13:51:42.927Z,48.80
2019-04-30T13:53:47.820Z,48.90
2019-04-30T13:55:52.611Z,49.10
2019-04-30T13:57:57.413Z,49.20
2019-04-30T14:00:02.199Z,49.20
2019-04-30T14:02:08.795Z,49.20
2019-04-30T14:04:26.997Z,49.30
2019-04-30T14:06:33.522Z,50.00
2019-04-30T14:08:42.697Z,49.30
2019-04-30T14:10:49.361Z,49.40
2019-04-30T14:12:57.637Z,49.30
2019-04-30T14:15:09.208Z,49.30
2019-04-30T14:17:13.620Z,49.30
2019-04-30T14:19:19.523Z,49.40
2019-04-30T14:21:35.043Z,49.30
2019-04-30T14:23:31.163Z,49.90
2019-04-30T14:25:36.085Z,49.30
2019-04-30T14:27:49.390Z,49.20
2019-04-30T14:29:49.387Z,49.20
2019-04-30T14:31:53.736Z,49.10
2019-04-30T14:33:59.321Z,49.20
2019-04-30T14:36:04.206Z,48.90
2019-04-30T14:38:09.958Z,48.90
2019-04-30T14:40:15.217Z,49.10
2019-04-30T14:42:21.264Z,49.10
2019-04-30T14:44:31.191Z,49.00
2019-04-30T14:46:46.079Z,48.70
2019-04-30T14:48:54.926Z,49.50
2019-04-30T14:51:00.343Z,48.90
2019-04-30T14:53:14.226Z,49.00
2019-04-30T14:55:39.360Z,48.90
2019-04-30T14:58:03.396Z,48.90
2019-04-30T15:00:27.186Z,48.50
2019-04-30T15:02:38.706Z,48.40
2019-04-30T15:04:43.493Z,48.60
2019-04-30T15:06:48.800Z,48.70
2019-04-30T15:08:53.735Z,49.10
2019-04-30T15:10:58.481Z,48.80
2019-04-30T15:13:03.186Z,48.70
2019-04-30T15:15:09.940Z,48.70
2019-04-30T15:17:15.744Z,48.50
2019-04-30T15:19:21.000Z,48.50
2019-04-30T15:21:25.910Z,48.50
2019-04-30T15:23:41.849Z,48.60
2019-04-30T15:25:48.551Z,48.60
2019-04-30T15:27:53.306Z,48.50
2019-04-30T15:29:58.089Z,48.40
2019-04-30T15:32:03.036Z,48.60
2019-04-30T15:34:11.068Z,48.60
2019-04-30T15:36:16.142Z,48.70
2019-04-30T15:38:23.689Z,48.70
2019-04-30T15:40:32.271Z,48.80
2019-04-30T15:42:41.682Z,48.80
2019-04-30T15:44:46.760Z,48.70
2019-04-30T15:46:52.067Z,48.80
2019-04-30T15:48:56.983Z,48.80
2019-04-30T15:51:02.352Z,48.80
2019-04-30T15:53:09.371Z,48.80
2019-04-30T15:55:14.410Z,48.60
2019-04-30T15:57:19.693Z,48.80
2019-04-30T15:59:34.772Z,48.70
2019-04-30T16:01:42.273Z,48.80
2019-04-30T16:03:48.800Z,48.80
2019-04-30T16:05:54.464Z,48.90
2019-04-30T16:08:33.616Z,48.70
2019-04-30T16:11:00.449Z,48.60
2019-04-30T16:13:11.607Z,48.60
2019-04-30T16:15:18.486Z,48.50
2019-04-30T16:17:25.157Z,48.90
2019-04-30T16:19:30.592Z,48.80
2019-04-30T16:21:35.968Z,48.80
2019-04-30T16:23:41.016Z,49.10
2019-04-30T16:25:45.859Z,48.90
2019-04-30T16:27:52.062Z,48.90
2019-04-30T16:29:57.055Z,49.00
2019-04-30T16:32:01.987Z,48.90
2019-04-30T16:34:06.931Z,49.00
2019-04-30T16:36:12.594Z,49.00
2019-04-30T16:38:20.887Z,49.00
2019-04-30T16:40:25.382Z,49.00
2019-04-30T16:42:30.490Z,49.00
2019-04-30T16:44:35.373Z,49.00
2019-04-30T16:46:40.275Z,49.00
2019-04-30T16:48:44.990Z,49.00
2019-04-30T16:50:51.246Z,49.00
2019-04-30T16:52:56.261Z,49.00
2019-04-30T16:55:01.078Z,48.90
2019-04-30T16:57:06.897Z,49.00
2019-04-30T16:59:15.340Z,49.10
2019-04-30T17:01:21.759Z,48.90
2019-04-30T17:03:33.861Z,48.90
2019-04-30T17:05:49.973Z,49.00
2019-04-30T17:08:06.438Z,48.90
2019-04-30T17:10:18.984Z,48.80
2019-04-30T17:12:30.182Z,48.80
2019-04-30T17:14:38.522Z,48.80
2019-04-30T17:16:43.646Z,48.70
2019-04-30T17:18:50.065Z,48.70
2019-04-30T17:20:55.757Z,48.80
2019-04-30T17:23:00.645Z,48.80
2019-04-30T17:25:05.635Z,48.70
2019-04-30T17:27:19.253Z,48.80
2019-04-30T17:29:19.493Z,48.90
2019-04-30T17:31:24.356Z,48.90
2019-04-30T17:33:29.241Z,49.40
2019-04-30T17:35:34.290Z,48.70
2019-04-30T17:37:39.234Z,48.70
2019-04-30T17:39:44.086Z,48.60
2019-04-30T17:41:49.020Z,48.60
2019-04-30T17:43:54.271Z,48.60
2019-04-30T17:45:59.114Z,48.70
2019-04-30T17:48:04.180Z,48.70
2019-04-30T17:50:10.582Z,48.70
2019-04-30T17:52:16.285Z,48.80
2019-04-30T17:54:21.596Z,48.60
2019-04-30T17:56:27.428Z,48.30
2019-04-30T17:58:35.811Z,48.00
2019-04-30T18:00:44.484Z,47.70
2019-04-30T18:02:49.673Z,47.30
2019-04-30T18:04:54.993Z,47.10
2019-04-30T18:07:00.888Z,47.00
2019-04-30T18:09:10.820Z,47.20
2019-04-30T18:11:14.842Z,47.10
2019-04-30T18:13:24.915Z,47.10
2019-04-30T18:15:32.056Z,47.30
2019-04-30T18:17:36.805Z,47.30
2019-04-30T18:20:00.724Z,47.50
2019-04-30T18:22:10.234Z,47.80
2019-04-30T18:24:34.134Z,47.80
2019-04-30T18:26:55.763Z,47.90
2019-04-30T18:29:00.616Z,48.10
2019-04-30T18:31:05.654Z,48.20
2019-04-30T18:33:10.464Z,48.00
2019-04-30T18:35:15.573Z,48.10
2019-04-30T18:37:20.634Z,48.20
2019-04-30T18:39:28.779Z,48.10
2019-04-30T18:41:33.269Z,48.40
2019-04-30T18:43:40.368Z,48.50
2019-04-30T18:45:44.695Z,48.60
2019-04-30T18:47:49.454Z,48.50
2019-04-30T18:49:55.939Z,48.60
2019-04-30T18:52:00.869Z,48.80
2019-04-30T18:54:05.835Z,49.00
2019-04-30T18:56:14.792Z,49.10
2019-04-30T18:58:19.711Z,49.40
2019-04-30T19:00:31.414Z,49.80
2019-04-30T19:02:38.363Z,50.30
2019-04-30T19:04:43.044Z,51.50
2019-04-30T19:06:47.854Z,52.30
2019-04-30T19:09:11.733Z,52.30
2019-04-30T19:11:35.964Z,52.50
2019-04-30T19:13:54.677Z,52.70
2019-04-30T19:16:24.761Z,53.10
2019-04-30T19:18:31.823Z,53.50
2019-04-30T19:20:42.248Z,53.40
2019-04-30T19:22:47.359Z,53.80
2019-04-30T19:24:58.430Z,53.80
2019-04-30T19:26:59.172Z,53.90
2019-04-30T19:29:04.215Z,54.10
2019-04-30T19:31:11.600Z,54.40
2019-04-30T19:33:15.873Z,54.30
2019-04-30T19:35:21.241Z,54.60
2019-04-30T19:37:26.122Z,54.50
2019-04-30T19:39:32.509Z,54.60
2019-04-30T19:41:38.657Z,55.00
2019-04-30T19:43:46.211Z,54.90
2019-04-30T19:45:51.342Z,55.50
2019-04-30T19:47:56.239Z,54.90
2019-04-30T19:50:02.342Z,55.20
2019-04-30T19:52:11.594Z,55.60
2019-04-30T19:54:15.472Z,55.70
2019-04-30T19:56:20.702Z,55.60
2019-04-30T19:58:37.977Z,55.90
2019-04-30T20:00:33.841Z,56.00
2019-04-30T20:02:39.218Z,55.90
2019-04-30T20:04:44.252Z,56.00
2019-04-30T20:06:50.361Z,56.00
2019-04-30T20:08:55.408Z,56.10
2019-04-30T20:11:00.480Z,56.10
2019-04-30T20:13:11.978Z,56.10
2019-04-30T20:15:24.287Z,56.10
2019-04-30T20:17:33.436Z,55.90
2019-04-30T20:19:45.880Z,56.00
2019-04-30T20:21:53.988Z,56.00
2019-04-30T20:23:59.362Z,56.20
2019-04-30T20:26:05.560Z,56.20
2019-04-30T20:28:13.089Z,56.30
2019-04-30T20:30:25.561Z,56.40
2019-04-30T20:32:39.024Z,56.40
2019-04-30T20:34:45.884Z,56.40
2019-04-30T20:36:51.480Z,56.50
2019-04-30T20:39:15.999Z,56.50
2019-04-30T20:41:24.744Z,56.50
2019-04-30T20:43:33.292Z,56.40
2019-04-30T20:45:40.272Z,56.50
2019-04-30T20:47:45.878Z,56.50
2019-04-30T20:49:53.360Z,56.60
2019-04-30T20:51:59.453Z,56.50
2019-04-30T20:54:04.631Z,56.50
2019-04-30T20:56:19.200Z,56.60
2019-04-30T20:58:26.983Z,56.60
2019-04-30T21:00:32.724Z,56.70
2019-04-30T21:02:38.723Z,56.70
2019-04-30T21:04:44.054Z,56.70
2019-04-30T21:06:49.643Z,56.70
2019-04-30T21:08:55.242Z,56.70
2019-04-30T21:11:00.965Z,56.80
2019-04-30T21:13:06.161Z,56.80
2019-04-30T21:15:11.158Z,56.70
2019-04-30T21:17:16.637Z,56.70
2019-04-30T21:19:21.614Z,56.80
2019-04-30T21:21:28.726Z,56.80
2019-04-30T21:23:36.126Z,56.70
2019-04-30T21:25:44.339Z,56.80
2019-04-30T21:27:50.611Z,56.80
2019-04-30T21:29:55.611Z,56.80
2019-04-30T21:32:13.386Z,56.80
2019-04-30T21:34:29.362Z,56.80
2019-04-30T21:36:34.672Z,56.70
2019-04-30T21:38:40.731Z,56.80
2019-04-30T21:40:46.286Z,56.80
2019-04-30T21:42:51.354Z,56.90
2019-04-30T21:44:56.673Z,56.90
2019-04-30T21:47:01.592Z,56.90
2019-04-30T21:49:08.907Z,56.80
2019-04-30T21:51:14.234Z,56.90
2019-04-30T21:53:19.535Z,56.80
2019-04-30T21:55:24.791Z,56.70
2019-04-30T21:57:29.823Z,56.80
2019-04-30T21:59:34.716Z,56.80
2019-04-30T22:01:39.791Z,56.80
2019-04-30T22:03:45.006Z,56.80
2019-04-30T22:05:49.810Z,56.80
2019-04-30T22:07:54.825Z,56.90
2019-04-30T22:10:00.567Z,56.90
2019-04-30T22:12:05.652Z,56.90
2019-04-30T22:14:10.562Z,56.90
2019-04-30T22:16:15.374Z,56.80
2019-04-30T22:18:20.193Z,56.80
2019-04-30T22:20:24.955Z,56.90
2019-04-30T22:22:29.824Z,56.90
2019-04-30T22:24:34.784Z,57.00
2019-04-30T22:26:39.695Z,56.90
2019-04-30T22:28:44.748Z,57.00
2019-04-30T22:30:50.529Z,56.90
2019-04-30T22:32:55.378Z,56.90
2019-04-30T22:35:19.150Z,56.90
2019-04-30T22:37:24.116Z,56.80
2019-04-30T22:39:39.705Z,56.90
2019-04-30T22:41:44.563Z,56.90
2019-04-30T22:43:49.386Z,57.10
2019-04-30T22:46:00.079Z,57.10
2019-04-30T22:48:05.005Z,57.00
2019-04-30T22:50:10.205Z,57.20
2019-04-30T22:52:17.220Z,57.00
2019-04-30T22:54:24.006Z,57.10
2019-04-30T22:56:28.966Z,57.10
2019-04-30T22:58:33.717Z,57.10
2019-04-30T23:00:42.468Z,57.10
2019-04-30T23:03:06.486Z,57.00
2019-04-30T23:05:14.134Z,57.30
2019-04-30T23:07:19.061Z,57.00
2019-04-30T23:09:23.851Z,57.10
2019-04-30T23:11:28.997Z,57.30
2019-04-30T23:13:33.944Z,57.30
2019-04-30T23:15:39.331Z,57.20
2019-04-30T23:17:44.494Z,57.30
2019-04-30T23:19:49.783Z,57.10
2019-04-30T23:21:54.886Z,57.20
2019-04-30T23:23:59.966Z,57.40
2019-04-30T23:26:04.894Z,57.30
2019-04-30T23:28:09.777Z,57.30
2019-04-30T23:30:14.822Z,57.30
2019-04-30T23:32:19.886Z,57.30
2019-04-30T23:34:24.873Z,57.30
2019-04-30T23:36:29.843Z,57.30
2019-04-30T23:38:34.965Z,57.30
2019-04-30T23:40:59.208Z,57.30
2019-04-30T23:43:04.219Z,57.30
2019-04-30T23:45:09.247Z,57.30
2019-04-30T23:47:14.173Z,57.30
2019-04-30T23:49:19.253Z,57.20
2019-04-30T23:51:24.041Z,57.30
2019-04-30T23:53:28.786Z,57.30
2019-04-30T23:55:33.671Z,57.90
2019-04-30T23:57:38.426Z,57.40
2019-04-30T23:59:43.252Z,57.30
